Time;durP1;ratioP1;P1;durP2;ratioP2;P2;SDS_P1;SDS_P2;PMS_P1;PMS_P2;Temp;Humidity;BMP_temperature;BMP_pressure;BME280_temperature;BME280_humidity;BME280_pressure;Samples;Min_cycle;Max_cycle;Signal;HPM_P1;HPM_P2
2022/09/01 00:01:49;;;;;;;0.98;0.20;;;;;;;16.12;59.02;100313.36;1685949;82;21077;-71
2022/09/01 00:04:20;;;;;;;0.72;0.10;;;;;;;16.13;59.07;100319.55;1705568;83;21077;-71
2022/09/01 00:06:48;;;;;;;0.20;0.20;;;;;;;16.17;59.27;100319.92;1705676;82;21043;-71
2022/09/01 00:09:18;;;;;;;5.00;0.62;;;;;;;16.23;58.71;100325.73;1703652;82;21049;-70
2022/09/01 00:11:49;;;;;;;0.30;0.15;;;;;;;16.25;58.50;100324.98;1694686;82;20997;-71
2022/09/01 00:14:19;;;;;;;1.22;0.20;;;;;;;16.25;58.43;100320.95;1668536;83;21034;-71
2022/09/01 00:16:46;;;;;;;0.40;0.20;;;;;;;16.25;58.16;100316.91;1694059;83;21515;-71
2022/09/01 00:19:12;;;;;;;2.12;0.20;;;;;;;16.24;57.80;100319.32;1685119;83;21558;-70
2022/09/01 00:21:42;;;;;;;0.42;0.10;;;;;;;16.23;56.70;100308.25;1674799;83;21096;-71
2022/09/01 00:24:11;;;;;;;0.60;0.28;;;;;;;16.20;56.35;100318.11;1693057;82;21014;-71
2022/09/01 00:26:38;;;;;;;0.33;0.20;;;;;;;16.15;56.42;100320.95;1698695;82;21450;-71
2022/09/01 00:29:05;;;;;;;1.65;0.23;;;;;;;16.16;56.28;100320.42;1702287;82;21046;-72
2022/09/01 00:31:33;;;;;;;0.30;0.10;;;;;;;16.16;55.77;100321.77;1709864;82;20999;-70
2022/09/01 00:34:02;;;;;;;0.57;0.10;;;;;;;16.15;55.39;100322.83;1708571;81;20982;-71
2022/09/01 00:36:28;;;;;;;0.60;0.30;;;;;;;16.15;55.24;100322.83;1695015;83;21651;-71
2022/09/01 00:38:55;;;;;;;0.53;0.10;;;;;;;16.13;55.21;100329.77;1701470;83;21545;-71
2022/09/01 00:41:25;;;;;;;0.45;0.10;;;;;;;16.14;54.99;100329.24;1694657;83;20982;-71
2022/09/01 00:44:00;;;;;;;2.55;0.20;;;;;;;16.15;54.61;100327.68;1694864;83;21046;-72
2022/09/01 00:46:31;;;;;;;0.10;0.10;;;;;;;16.14;54.38;100324.70;1701328;83;21002;-73
2022/09/01 00:49:02;;;;;;;0.50;0.20;;;;;;;16.14;54.51;100328.73;1702309;83;21137;-72
2022/09/01 00:51:30;;;;;;;1.32;0.20;;;;;;;16.10;54.64;100328.87;1698265;83;21564;-72
2022/09/01 00:53:58;;;;;;;0.50;0.10;;;;;;;16.07;54.45;100327.18;1706878;83;20982;-72
2022/09/01 00:56:26;;;;;;;0.35;0.10;;;;;;;16.05;54.58;100328.74;1718371;82;21010;-72
2022/09/01 00:58:53;;;;;;;1.05;0.20;;;;;;;16.03;54.53;100325.46;1714624;82;20971;-72
2022/09/01 01:01:20;;;;;;;1.25;0.20;;;;;;;16.00;54.72;100332.62;1669470;82;21096;-72
2022/09/01 01:03:46;;;;;;;0.20;0.10;;;;;;;15.96;54.95;100330.09;1648237;85;21021;-72
2022/09/01 01:06:15;;;;;;;0.88;0.10;;;;;;;15.91;55.07;100326.70;1665650;85;21030;-72
2022/09/01 01:08:59;;;;;;;1.27;0.10;;;;;;;15.86;55.00;100324.39;1662307;85;20974;-71
2022/09/01 01:11:16;;;;;;;1.27;0.10;;;;;;;15.82;55.14;100325.89;1654511;85;21072;-71
2022/09/01 01:13:54;;;;;;;0.20;0.08;;;;;;;15.76;55.38;100323.57;1708053;82;21092;-70
2022/09/01 01:16:24;;;;;;;0.10;0.10;;;;;;;15.70;55.53;100320.41;1712123;82;21034;-72
2022/09/01 01:18:51;;;;;;;1.75;0.10;;;;;;;15.66;55.86;100323.25;1713650;82;21519;-72
2022/09/01 01:24:31;;;;;;;1.25;0.10;;;;;;;15.61;56.24;100330.61;1691864;82;21061;-72
2022/09/01 01:26:59;;;;;;;0.40;0.20;;;;;;;15.57;56.45;100326.73;1701592;83;20969;-71
2022/09/01 01:29:35;;;;;;;2.27;0.10;;;;;;;15.53;56.78;100323.66;1693059;83;21088;-73
2022/09/01 01:32:11;;;;;;;2.75;0.20;;;;;;;15.50;57.05;100325.46;1690838;83;21096;-70
2022/09/01 01:34:33;;;;;;;0.60;0.10;;;;;;;15.43;57.42;100323.89;1670065;83;21105;-71
2022/09/01 01:37:00;;;;;;;0.10;0.10;;;;;;;15.42;57.41;100323.57;1604014;88;21115;-72
2022/09/01 01:39:27;;;;;;;1.20;0.10;;;;;;;15.40;57.31;100324.31;1655664;84;21872;-73
2022/09/01 01:41:57;;;;;;;0.17;0.10;;;;;;;15.39;57.30;100316.78;1658142;84;21623;-72
2022/09/01 01:44:29;;;;;;;0.70;0.37;;;;;;;15.37;57.53;100322.91;1633636;85;21147;-72
2022/09/01 01:47:07;;;;;;;0.78;0.35;;;;;;;15.33;57.85;100317.14;1661083;85;21073;-71
2022/09/01 01:49:30;;;;;;;0.25;0.10;;;;;;;15.27;58.09;100318.00;1598373;88;21509;-71
2022/09/01 01:51:57;;;;;;;0.47;0.10;;;;;;;15.19;58.58;100319.63;1633752;86;21054;-71
2022/09/01 01:54:30;;;;;;;0.80;0.03;;;;;;;15.15;58.54;100309.84;1626736;86;21075;-71
2022/09/01 01:56:58;;;;;;;0.60;0.10;;;;;;;15.12;58.76;100312.14;1626214;86;21064;-72
2022/09/01 01:59:25;;;;;;;1.35;0.10;;;;;;;15.08;58.87;100309.60;1625496;87;21023;-71
2022/09/01 02:01:52;;;;;;;0.10;0.10;;;;;;;15.01;59.25;100312.85;1650840;85;21062;-71
2022/09/01 02:04:19;;;;;;;;;;;;;;;14.92;59.55;100306.95;1657268;85;21431;-72
2022/09/01 02:06:48;;;;;;;0.10;0.10;;;;;;;14.84;60.25;100311.22;1651133;85;20110;-72
2022/09/01 02:09:19;;;;;;;0.35;0.20;;;;;;;14.75;60.29;100308.80;1661832;85;21090;-71
2022/09/01 02:11:46;;;;;;;0.30;0.10;;;;;;;14.73;60.51;100310.05;1658648;84;21223;-70
2022/09/01 02:14:19;;;;;;;0.75;0.10;;;;;;;14.71;60.72;100310.78;1672422;84;21038;-71
2022/09/01 02:16:41;;;;;;;1.62;0.13;;;;;;;14.69;61.05;100313.70;1661396;84;21627;-71
2022/09/01 02:19:09;;;;;;;0.20;0.10;;;;;;;14.65;61.13;100305.76;1666788;84;21062;-71
2022/09/01 02:21:52;;;;;;;0.20;0.20;;;;;;;14.60;61.32;100305.61;1662104;84;21481;-71
2022/09/01 02:24:07;;;;;;;1.47;0.10;;;;;;;14.55;61.64;100303.52;1673761;84;21068;-71
2022/09/01 02:26:44;;;;;;;3.50;0.30;;;;;;;14.51;61.59;100308.20;1673193;84;21141;-70
2022/09/01 02:29:17;;;;;;;0.88;0.20;;;;;;;14.44;61.70;100300.70;1666048;84;21054;-71
2022/09/01 02:31:47;;;;;;;0.47;0.28;;;;;;;14.35;62.31;100308.16;1671181;84;21065;-71
2022/09/01 02:34:15;;;;;;;2.05;0.25;;;;;;;14.31;63.14;100309.63;1625148;85;20990;-70
2022/09/01 02:36:49;;;;;;;1.15;0.10;;;;;;;14.30;63.07;100310.16;1631643;86;21121;-70
2022/09/01 02:39:25;;;;;;;1.02;0.10;;;;;;;14.28;63.62;100304.19;1624594;86;21069;-70
2022/09/01 02:41:53;;;;;;;1.90;0.85;;;;;;;14.33;63.97;100311.58;1637744;86;21030;-69
2022/09/01 02:44:21;;;;;;;1.95;0.10;;;;;;;14.35;63.78;100306.83;1629246;86;21035;-70
2022/09/01 02:46:49;;;;;;;0.75;0.20;;;;;;;14.32;64.17;100307.27;1664331;85;21061;-69
2022/09/01 02:49:23;;;;;;;2.77;0.10;;;;;;;14.31;63.95;100312.31;1662660;85;21042;-71
2022/09/01 02:51:52;;;;;;;1.55;0.10;;;;;;;14.30;64.78;100314.70;1671340;85;21154;-70
2022/09/01 02:54:24;;;;;;;1.55;0.10;;;;;;;14.32;64.74;100309.42;1666551;85;21441;-71
2022/09/01 02:56:53;;;;;;;1.92;0.10;;;;;;;14.31;64.64;100316.34;1610094;86;21015;-71
2022/09/01 02:59:21;;;;;;;5.85;0.10;;;;;;;14.28;64.80;100316.75;1603960;87;21159;-71
2022/09/01 03:01:50;;;;;;;2.20;0.57;;;;;;;14.23;64.89;100321.95;1647542;84;21092;-69
2022/09/01 03:04:19;;;;;;;0.57;0.23;;;;;;;14.17;64.79;100328.45;1658747;84;21021;-70
2022/09/01 03:06:46;;;;;;;0.88;0.20;;;;;;;14.12;65.20;100329.60;1660307;84;21177;-70
2022/09/01 03:09:17;;;;;;;0.53;0.20;;;;;;;14.11;65.08;100329.31;1663917;84;21034;-71
2022/09/01 03:11:48;;;;;;;1.22;0.30;;;;;;;14.09;65.47;100328.70;1655323;84;21649;-71
2022/09/01 03:14:15;;;;;;;0.20;0.17;;;;;;;14.10;65.38;100326.31;1658073;84;21019;-71
2022/09/01 03:16:45;;;;;;;0.20;0.10;;;;;;;14.12;65.32;100337.64;1659383;84;21045;-71
2022/09/01 03:19:12;;;;;;;0.93;0.17;;;;;;;14.17;64.45;100337.02;1664314;84;21173;-71
2022/09/01 03:21:43;;;;;;;4.90;0.20;;;;;;;14.18;63.85;100344.86;1662364;84;21181;-71
2022/09/01 03:24:14;;;;;;;1.17;0.25;;;;;;;14.17;63.88;100341.86;1668563;84;21041;-71
2022/09/01 03:26:42;;;;;;;1.12;0.20;;;;;;;14.16;63.92;100346.91;1668718;84;21057;-71
2022/09/01 03:29:08;;;;;;;0.85;0.20;;;;;;;14.15;64.39;100349.30;1661986;84;21034;-70
2022/09/01 03:31:37;;;;;;;0.57;0.23;;;;;;;14.20;64.16;100346.81;1665454;84;21100;-71
2022/09/01 03:34:04;;;;;;;1.05;0.33;;;;;;;14.29;63.94;100342.02;1658934;84;21102;-71
2022/09/01 03:36:33;;;;;;;0.37;0.20;;;;;;;14.38;63.44;100341.27;1650304;85;21078;-72
2022/09/01 03:39:01;;;;;;;0.72;0.30;;;;;;;14.50;63.53;100344.91;1637883;85;21064;-72
2022/09/01 03:41:30;;;;;;;3.22;0.28;;;;;;;14.10;62.03;100249.92;1635849;85;21053;-72
2022/09/01 03:43:58;;;;;;;1.05;0.20;;;;;;;14.78;60.96;100346.45;1642054;85;21018;-72
2022/09/01 03:46:30;;;;;;;0.75;0.35;;;;;;;14.83;60.12;100343.95;1631059;86;21624;-72
2022/09/01 03:49:00;;;;;;;0.20;0.20;;;;;;;14.91;59.93;100347.70;1610458;87;21070;-72
2022/09/01 03:51:29;;;;;;;1.37;0.30;;;;;;;15.14;59.31;100343.62;1584872;88;21116;-71
2022/09/01 03:53:55;;;;;;;0.95;0.33;;;;;;;15.54;58.46;100353.52;1592209;88;21106;-71
2022/09/01 03:56:25;;;;;;;0.33;0.30;;;;;;;16.10;56.53;100348.22;1598421;88;21045;-69
2022/09/01 03:58:53;;;;;;;1.30;0.55;;;;;;;16.69;54.85;100348.53;1641966;85;21050;-72
2022/09/01 04:01:20;;;;;;;3.15;0.20;;;;;;;17.39;52.97;100349.23;1669172;84;21131;-80
2022/09/01 04:03:49;;;;;;;0.20;0.20;;;;;;;18.17;50.32;100350.44;1662512;84;21075;-76
2022/09/01 04:06:19;;;;;;;2.62;0.20;;;;;;;18.82;47.89;100343.37;1667437;84;21175;-68
2022/09/01 04:08:47;;;;;;;0.47;0.10;;;;;;;19.36;45.91;100333.98;1643217;85;21049;-70
2022/09/01 04:11:17;;;;;;;0.40;0.20;;;;;;;19.55;45.08;100340.78;1608656;87;21561;-76
2022/09/01 04:13:46;;;;;;;0.45;0.10;;;;;;;19.37;44.94;100344.55;1693996;83;21090;-84
2022/09/01 04:19:18;;;;;;;0.75;0.20;;;;;;;18.62;45.63;100356.45;1632040;86;21303;-67
2022/09/01 04:21:36;;;;;;;0.82;0.25;;;;;;;18.30;46.09;100355.56;1677058;83;21118;-75
2022/09/01 04:24:04;;;;;;;0.55;0.20;;;;;;;18.20;46.65;100362.12;1677687;83;20960;-74
2022/09/01 04:26:32;;;;;;;1.95;0.25;;;;;;;18.47;47.03;100359.14;1686229;83;21047;-71
2022/09/01 04:28:59;;;;;;;1.52;0.35;;;;;;;19.25;45.95;100358.69;1685605;83;20943;-73
2022/09/01 04:31:25;;;;;;;2.92;0.28;;;;;;;20.19;43.82;100353.84;1696461;83;21490;-66
2022/09/01 04:33:52;;;;;;;1.10;0.20;;;;;;;20.80;42.81;100357.79;1687527;83;21053;-80
2022/09/01 04:36:24;;;;;;;2.75;0.37;;;;;;;21.33;41.22;100353.91;1694623;82;21069;-71
2022/09/01 04:38:56;;;;;;;1.57;0.80;;;;;;;21.84;40.60;100358.89;1702014;82;20974;-71
2022/09/01 04:41:29;;;;;;;4.10;0.40;;;;;;;22.37;39.88;100361.61;1700678;82;21213;-72
2022/09/01 04:44:03;;;;;;;1.05;0.35;;;;;;;22.91;38.90;100357.66;1690051;82;21536;-64
2022/09/01 04:46:30;;;;;;;1.57;0.40;;;;;;;23.27;38.64;100359.88;1702734;82;20990;-62
2022/09/01 04:48:57;;;;;;;0.53;0.30;;;;;;;23.55;38.12;100360.96;1701408;82;21022;-65
2022/09/01 04:51:28;;;;;;;5.20;1.12;;;;;;;23.89;37.47;100359.83;1712086;82;21021;-65
2022/09/01 04:53:56;;;;;;;1.92;0.60;;;;;;;24.15;37.70;100361.91;1698643;82;21100;-66
2022/09/01 04:56:25;;;;;;;3.05;1.30;;;;;;;24.03;38.76;100361.40;1708884;82;21052;-61
2022/09/01 04:58:59;;;;;;;3.05;1.80;;;;;;;23.45;40.50;100368.56;1702869;82;21047;-62
2022/09/01 05:01:27;;;;;;;5.55;1.50;;;;;;;22.69;42.27;100367.41;1692155;83;21477;-65
2022/09/01 05:04:00;;;;;;;3.30;2.75;;;;;;;22.05;44.26;100367.95;1674612;84;21058;-64
2022/09/01 05:06:43;;;;;;;4.60;3.40;;;;;;;21.40;46.76;100359.13;1697765;82;21026;-61
2022/09/01 05:09:13;;;;;;;3.35;3.05;;;;;;;20.78;48.74;100362.65;1711544;82;20947;-61
2022/09/01 05:11:56;;;;;;;6.15;3.47;;;;;;;20.41;50.42;100366.00;1701881;82;21048;-61
2022/09/01 05:14:24;;;;;;;3.08;2.70;;;;;;;20.36;51.77;100363.77;1702004;82;21454;-62
2022/09/01 05:16:57;;;;;;;4.30;2.98;;;;;;;20.74;51.23;100368.84;1710928;82;21549;-61
2022/09/01 05:19:28;;;;;;;4.30;3.15;;;;;;;21.20;50.29;100360.58;1724045;82;21002;-61
2022/09/01 05:21:57;;;;;;;4.03;3.02;;;;;;;21.47;49.29;100356.21;1711338;82;21301;-62
2022/09/01 05:24:31;;;;;;;4.42;2.85;;;;;;;21.54;48.89;100357.62;1684141;82;21073;-63
2022/09/01 05:26:53;;;;;;;3.85;2.47;;;;;;;21.56;48.91;100353.30;1694084;83;21052;-62
2022/09/01 05:29:19;;;;;;;5.15;3.40;;;;;;;21.44;49.01;100358.91;1668530;86;21030;-62
2022/09/01 05:31:51;;;;;;;4.17;3.22;;;;;;;21.41;49.00;100357.23;1679145;83;21074;-61
2022/09/01 05:34:25;;;;;;;3.22;2.95;;;;;;;21.44;49.00;100358.91;1697179;83;20994;-61
2022/09/01 05:36:49;;;;;;;4.15;3.75;;;;;;;21.51;48.52;100363.58;1676208;83;20997;-61
2022/09/01 05:39:15;;;;;;;5.47;3.67;;;;;;;21.52;48.46;100357.61;1657680;85;21023;-61
2022/09/01 05:41:42;;;;;;;3.05;2.80;;;;;;;21.51;47.98;100362.23;1684724;83;21066;-61
2022/09/01 05:44:10;;;;;;;7.00;4.37;;;;;;;21.29;48.53;100359.58;1663516;84;21562;-62
2022/09/01 05:46:38;;;;;;;6.10;5.28;;;;;;;21.01;49.21;100363.41;1687748;83;21033;-61
2022/09/01 05:49:08;;;;;;;5.22;3.08;;;;;;;20.75;49.96;100359.63;1629888;85;21616;-72
2022/09/01 05:51:36;;;;;;;3.80;3.37;;;;;;;20.61;50.11;100357.88;1670738;83;21457;-70
2022/09/01 05:54:06;;;;;;;3.87;3.22;;;;;;;20.53;50.46;100361.82;1644528;85;21057;-72
2022/09/01 05:56:32;;;;;;;3.67;2.95;;;;;;;20.38;50.63;100361.11;1697890;83;21021;-71
2022/09/01 05:59:01;;;;;;;3.90;2.77;;;;;;;20.32;50.54;100357.23;1695841;83;21041;-70
2022/09/01 06:01:32;;;;;;;4.30;2.80;;;;;;;20.57;51.15;100362.13;1645635;84;21052;-72
2022/09/01 06:03:58;;;;;;;2.52;2.33;;;;;;;21.12;48.86;100361.06;1689632;83;21061;-72
2022/09/01 06:06:29;;;;;;;9.13;3.67;;;;;;;21.47;47.67;100359.73;1669796;84;21013;-72
2022/09/01 06:08:58;;;;;;;5.30;3.17;;;;;;;21.57;46.93;100354.94;1695536;83;21010;-72
2022/09/01 06:11:27;;;;;;;4.50;2.85;;;;;;;21.56;47.07;100352.75;1695031;84;21786;-73
2022/09/01 06:13:57;;;;;;;4.90;2.30;;;;;;;21.82;46.98;100349.39;1696284;83;21025;-71
2022/09/01 06:16:24;;;;;;;4.67;2.83;;;;;;;22.28;46.34;100345.03;1691047;84;21608;-74
2022/09/01 06:18:52;;;;;;;2.85;1.95;;;;;;;22.76;45.09;100345.42;1679710;84;21474;-72
2022/09/01 06:21:23;;;;;;;2.92;1.92;;;;;;;23.00;44.38;100345.17;1711326;83;21061;-72
2022/09/01 06:23:54;;;;;;;3.08;1.15;;;;;;;23.20;43.56;100342.20;1710984;82;21053;-72
2022/09/01 06:26:30;;;;;;;2.80;1.92;;;;;;;23.29;42.79;100342.74;1698598;83;21493;-72
2022/09/01 06:29:03;;;;;;;6.40;2.37;;;;;;;23.30;42.67;100348.47;1680729;84;21061;-71
2022/09/01 06:31:33;;;;;;;1.72;1.60;;;;;;;23.01;42.34;100349.51;1727472;81;21117;-72
2022/09/01 06:34:04;;;;;;;6.05;2.05;;;;;;;22.56;43.14;100355.14;1724182;82;20974;-71
2022/09/01 06:36:39;;;;;;;1.87;0.80;;;;;;;22.27;44.94;100355.60;1725348;81;21017;-71
2022/09/01 06:39:05;;;;;;;1.92;0.60;;;;;;;22.37;41.34;100349.94;1678999;84;21045;-71
2022/09/01 06:41:31;;;;;;;0.90;0.50;;;;;;;22.47;39.98;100345.87;1729626;81;20982;-72
2022/09/01 06:44:00;;;;;;;0.42;0.40;;;;;;;22.39;40.47;100352.65;1705151;83;21129;-73
2022/09/01 06:46:27;;;;;;;1.05;0.40;;;;;;;22.58;39.47;100354.88;1722212;81;21004;-71
2022/09/01 06:48:57;;;;;;;0.57;0.57;;;;;;;22.72;38.26;100347.31;1726409;81;21072;-72
2022/09/01 06:51:30;;;;;;;1.10;0.33;;;;;;;22.71;38.09;100353.00;1722193;83;21580;-71
2022/09/01 06:53:58;;;;;;;1.22;0.60;;;;;;;22.62;38.94;100358.16;1724362;82;21121;-72
2022/09/01 06:56:32;;;;;;;2.27;1.00;;;;;;;22.70;39.17;100352.75;1726326;81;21045;-73
2022/09/01 06:59:04;;;;;;;2.60;1.00;;;;;;;22.73;38.45;100361.70;1742007;81;21034;-72
2022/09/01 07:01:30;;;;;;;3.85;0.68;;;;;;;22.35;39.07;100361.05;1692454;84;21096;-71
2022/09/01 07:03:58;;;;;;;4.67;0.90;;;;;;;22.00;39.58;100358.97;1702011;83;21100;-74
2022/09/01 07:06:41;;;;;;;1.60;0.85;;;;;;;21.73;40.42;100357.20;1708275;82;21038;-73
2022/09/01 07:09:18;;;;;;;2.33;1.07;;;;;;;21.58;38.70;100357.37;1713755;82;21125;-70
2022/09/01 07:11:46;;;;;;;5.20;1.32;;;;;;;21.41;38.51;100362.10;1701542;82;21104;-70
2022/09/01 07:14:15;;;;;;;2.02;1.35;;;;;;;21.20;38.91;100361.94;1702073;82;21092;-71
2022/09/01 07:16:42;;;;;;;4.08;1.57;;;;;;;21.06;39.31;100363.46;1704328;82;21585;-73
2022/09/01 07:19:14;;;;;;;9.75;1.70;;;;;;;20.97;39.61;100355.52;1706616;82;21104;-71
2022/09/01 07:21:54;;;;;;;1.45;1.30;;;;;;;20.92;39.22;100360.88;1706320;82;21043;-70
2022/09/01 07:24:21;;;;;;;2.20;1.25;;;;;;;20.84;39.07;100365.41;1704598;82;21666;-69
2022/09/01 07:27:08;;;;;;;3.62;1.45;;;;;;;20.75;38.70;100367.20;1709160;82;21501;-71
2022/09/01 07:29:34;;;;;;;1.55;0.90;;;;;;;20.29;38.83;100317.96;1704970;82;21065;-70
2022/09/01 07:32:02;;;;;;;1.85;1.35;;;;;;;20.42;39.05;100363.59;1698518;82;21053;-70
2022/09/01 07:34:30;;;;;;;3.47;2.17;;;;;;;20.40;39.15;100367.08;1703239;82;20954;-71
2022/09/01 07:36:58;;;;;;;5.40;2.33;;;;;;;20.45;39.07;100366.86;1686939;82;21046;-70
2022/09/01 07:39:25;;;;;;;2.00;1.70;;;;;;;20.46;39.23;100369.31;1699692;82;20990;-71
2022/09/01 07:41:57;;;;;;;9.65;1.65;;;;;;;20.50;38.97;100373.69;1704790;82;20998;-69
2022/09/01 07:44:32;;;;;;;2.17;1.80;;;;;;;20.47;38.37;100370.13;1704398;82;21636;-70
2022/09/01 07:47:00;;;;;;;5.45;2.33;;;;;;;20.42;38.87;100373.06;1664193;84;21047;-71
2022/09/01 07:49:28;;;;;;;4.58;1.60;;;;;;;20.42;38.69;100370.35;1710325;82;21034;-70
2022/09/01 07:51:55;;;;;;;2.12;1.62;;;;;;;20.38;38.69;100370.58;1678685;84;21517;-69
2022/09/01 07:54:22;;;;;;;2.25;1.72;;;;;;;20.34;38.81;100370.81;1699509;82;21794;-66
2022/09/01 07:56:49;;;;;;;10.85;3.20;;;;;;;20.30;38.90;100381.83;1712818;82;20965;-69
2022/09/01 07:59:17;;;;;;;5.42;2.08;;;;;;;20.22;39.22;100371.45;1704608;82;21621;-69
2022/09/01 08:01:52;;;;;;;6.47;2.98;;;;;;;20.16;39.64;100371.92;1662694;85;21116;-68
2022/09/01 08:04:21;;;;;;;5.62;2.35;;;;;;;20.15;38.96;100366.77;1670106;84;21099;-70
2022/09/01 08:06:47;;;;;;;4.25;3.00;;;;;;;20.07;39.28;100364.50;1670994;85;21057;-71
2022/09/01 08:09:14;;;;;;;6.97;3.35;;;;;;;20.01;39.73;100371.19;1668231;84;21041;-69
2022/09/01 08:11:41;;;;;;;3.85;3.55;;;;;;;20.00;39.64;100366.02;1671528;84;20990;-69
2022/09/01 08:14:08;;;;;;;4.37;3.62;;;;;;;19.99;40.02;100362.51;1673864;85;21105;-69
2022/09/01 08:16:37;;;;;;;5.37;4.20;;;;;;;20.01;40.50;100361.72;1682686;85;20983;-70
2022/09/01 08:19:03;;;;;;;8.73;5.28;;;;;;;19.99;40.18;100370.62;1679580;85;21106;-70
2022/09/01 08:21:31;;;;;;;8.50;5.20;;;;;;;19.99;40.15;100359.80;1662902;85;21053;-72
2022/09/01 08:24:01;;;;;;;12.47;6.53;;;;;;;20.00;40.38;100358.75;1680164;82;21081;-70
2022/09/01 08:26:29;;;;;;;8.63;6.45;;;;;;;20.06;40.65;100354.73;1682919;85;21573;-69
2022/09/01 08:28:56;;;;;;;9.45;7.72;;;;;;;20.10;40.71;100354.00;1667909;85;21473;-68
2022/09/01 08:31:27;;;;;;;10.55;8.70;;;;;;;20.14;40.78;100348.36;1675823;85;21089;-67
2022/09/01 08:33:54;;;;;;;9.48;8.58;;;;;;;20.17;40.36;100351.09;1682602;85;21519;-70
2022/09/01 08:36:21;;;;;;;;;;;;;;;20.19;40.58;100352.49;1672782;85;21093;-66
2022/09/01 08:38:47;;;;;;;20.90;12.20;;;;;;;20.20;40.78;100355.47;1712339;82;20259;-70
2022/09/01 08:41:39;;;;;;;;;;;;;;;20.13;40.83;100357.53;1712643;83;21003;-70
2022/09/01 08:44:14;;;;;;;13.15;10.43;;;;;;;20.13;40.65;100351.31;1721038;82;20117;-69
2022/09/01 08:46:43;;;;;;;16.60;10.68;;;;;;;20.17;40.81;100353.80;1703138;82;20986;-70
2022/09/01 08:49:21;;;;;;;15.00;10.95;;;;;;;20.16;40.66;100343.52;1709559;82;20999;-71
2022/09/01 08:52:12;;;;;;;15.10;11.65;;;;;;;20.10;39.65;100340.47;1684175;82;22368;-70
2022/09/01 08:54:56;;;;;;;17.57;12.50;;;;;;;19.65;40.13;100268.45;1710884;82;20980;-71
2022/09/01 08:57:37;;;;;;;17.02;11.63;;;;;;;20.10;40.13;100339.63;1689513;83;21012;-70
2022/09/01 09:00:24;;;;;;;16.05;11.10;;;;;;;20.21;39.91;100338.69;1711846;82;21500;-72
2022/09/01 09:03:21;;;;;;;18.50;15.03;;;;;;;20.37;39.15;100335.09;1700882;82;21066;-73
2022/09/01 09:06:03;;;;;;;23.35;17.62;;;;;;;20.49;38.93;100342.26;1673085;84;21080;-71
2022/09/01 09:08:52;;;;;;;21.50;15.78;;;;;;;20.55;38.39;100341.23;1706637;82;21025;-72
2022/09/01 09:12:09;;;;;;;27.77;19.70;;;;;;;20.52;39.02;100344.47;1633857;83;21595;-73
2022/09/01 09:15:10;;;;;;;30.17;20.23;;;;;;;20.56;38.64;100340.17;1713655;81;21081;-71
2022/09/01 09:17:44;;;;;;;28.02;19.30;;;;;;;20.54;38.64;100340.42;1656590;84;21082;-74
2022/09/01 09:20:10;;;;;;;26.93;21.13;;;;;;;20.55;39.07;100339.88;1691097;83;21011;-72
2022/09/01 09:22:37;;;;;;;27.17;21.90;;;;;;;20.60;38.65;100334.56;1724700;81;21559;-72
2022/09/01 09:25:14;;;;;;;32.83;24.27;;;;;;;20.61;38.61;100332.14;1726143;81;21552;-72
2022/09/01 09:27:45;;;;;;;33.23;25.82;;;;;;;20.55;38.25;100335.82;1716635;83;21040;-73
2022/09/01 09:30:27;;;;;;;42.08;30.00;;;;;;;20.48;38.49;100338.74;1720891;81;21042;-73
2022/09/01 09:33:05;;;;;;;40.03;32.67;;;;;;;20.41;38.18;100338.12;1709728;83;21100;-72
2022/09/01 09:35:45;;;;;;;44.77;35.15;;;;;;;20.37;38.13;100332.39;1714817;83;21108;-70
2022/09/01 09:38:18;;;;;;;51.75;36.73;;;;;;;20.27;37.79;100329.58;1664885;84;21043;-70
2022/09/01 09:41:07;;;;;;;50.38;39.30;;;;;;;20.28;38.12;100336.61;1652969;84;21082;-71
2022/09/01 09:43:48;;;;;;;57.15;42.40;;;;;;;20.33;37.94;100337.22;1651533;84;21111;-70
2022/09/01 09:46:34;;;;;;;63.13;46.18;;;;;;;20.33;37.40;100332.62;1723112;81;21535;-70
2022/09/01 09:49:27;;;;;;;67.72;48.08;;;;;;;20.29;37.46;100333.39;1707194;81;21037;-71
2022/09/01 09:52:08;;;;;;;67.75;48.23;;;;;;;20.18;37.49;100337.31;1718153;81;21551;-71
2022/09/01 09:54:41;;;;;;;70.15;51.13;;;;;;;20.06;37.74;100339.85;1722456;81;21096;-70
2022/09/01 09:57:12;;;;;;;64.05;50.00;;;;;;;20.02;37.96;100333.61;1708794;81;21066;-71
2022/09/01 10:00:03;;;;;;;67.95;51.77;;;;;;;20.01;38.76;100331.96;1695451;83;21108;-69
2022/09/01 10:02:38;;;;;;;65.65;49.58;;;;;;;20.08;38.53;100331.79;1685547;83;21065;-70
2022/09/01 10:05:37;;;;;;;65.15;46.35;;;;;;;20.17;38.63;100334.85;1701326;83;21069;-72
2022/09/01 10:08:14;;;;;;;57.43;44.15;;;;;;;20.22;38.25;100340.34;1699492;83;21197;-71
2022/09/01 10:10:51;;;;;;;58.17;46.00;;;;;;;20.24;37.99;100340.90;1695327;83;21015;-71
2022/09/01 10:13:22;;;;;;;61.13;44.58;;;;;;;20.30;38.11;100341.23;1678059;83;20986;-71
2022/09/01 10:15:53;;;;;;;52.53;38.08;;;;;;;20.41;38.05;100334.05;1674187;83;21752;-70
2022/09/01 10:18:31;;;;;;;48.45;35.45;;;;;;;20.53;37.52;100330.69;1683840;83;21481;-71
2022/09/01 10:21:59;;;;;;;43.68;32.88;;;;;;;20.68;36.68;100327.34;1821466;77;22815;-71
2022/09/01 10:24:29;;;;;;;44.23;31.93;;;;;;;20.63;36.63;100330.55;1724908;80;20998;-71
2022/09/01 10:27:03;;;;;;;44.53;30.82;;;;;;;20.59;36.59;100331.01;1726315;83;21023;-70
2022/09/01 10:29:38;;;;;;;45.55;34.05;;;;;;;20.59;36.55;100326.14;1683709;84;21002;-72
2022/09/01 10:32:09;;;;;;;48.33;34.25;;;;;;;20.55;36.89;100333.11;1683913;83;21533;-70
2022/09/01 10:34:37;;;;;;;44.75;33.95;;;;;;;20.49;36.99;100330.88;1685307;84;21129;-71
2022/09/01 10:37:07;;;;;;;41.92;32.95;;;;;;;20.48;37.55;100326.56;1656016;85;21099;-71
2022/09/01 10:39:37;;;;;;;39.18;29.63;;;;;;;20.51;37.12;100330.64;1644894;85;21050;-71
2022/09/01 10:42:09;;;;;;;39.55;28.57;;;;;;;20.52;37.39;100324.16;1662806;83;21051;-70
2022/09/01 10:44:52;;;;;;;28.87;22.07;;;;;;;20.52;37.94;100328.22;1672714;83;21016;-72
2022/09/01 10:47:32;;;;;;;20.60;16.05;;;;;;;20.59;36.62;100326.14;1664481;84;21535;-71
2022/09/01 10:50:06;;;;;;;20.50;15.03;;;;;;;20.57;35.69;100321.52;1668949;84;21577;-73
2022/09/01 10:52:47;;;;;;;14.63;10.65;;;;;;;20.56;36.23;100322.58;1682528;83;21067;-73
2022/09/01 10:55:28;;;;;;;13.18;9.28;;;;;;;20.66;35.79;100311.86;1683732;84;21026;-73
2022/09/01 10:58:36;;;;;;;13.22;9.13;;;;;;;20.78;35.16;100311.19;1683586;83;21059;-71
2022/09/01 11:01:03;;;;;;;16.57;10.23;;;;;;;20.82;35.40;100308.78;1676716;83;21472;-69
2022/09/01 11:03:52;;;;;;;15.90;10.32;;;;;;;20.53;35.40;100267.57;1681200;84;21002;-70
2022/09/01 11:06:41;;;;;;;14.73;10.28;;;;;;;20.87;35.20;100312.06;1680184;84;21633;-71
2022/09/01 11:09:49;;;;;;;11.63;8.95;;;;;;;20.87;35.46;100308.84;1606507;85;21042;-71
2022/09/01 11:12:43;;;;;;;10.90;9.78;;;;;;;20.91;35.04;100305.08;1680745;83;21022;-70
2022/09/01 11:15:21;;;;;;;10.30;7.50;;;;;;;20.90;34.07;100309.66;1655426;85;21081;-72
2022/09/01 11:17:55;;;;;;;12.88;8.85;;;;;;;20.80;33.64;100301.45;1679568;83;21148;-68
2022/09/01 11:20:32;;;;;;;11.75;8.63;;;;;;;20.79;34.15;100302.00;1650036;85;21214;-72
2022/09/01 11:23:29;;;;;;;12.43;9.48;;;;;;;20.80;33.94;100299.55;1675293;84;21010;-71
2022/09/01 11:26:23;;;;;;;11.95;9.85;;;;;;;20.79;33.99;100299.80;1695856;83;21002;-72
2022/09/01 11:28:49;;;;;;;15.58;10.93;;;;;;;20.75;34.05;100287.85;1689966;83;21540;-74
2022/09/01 11:31:29;;;;;;;;;;;;;;;20.75;34.21;100287.85;1692205;83;21014;-70
2022/09/01 11:34:18;;;;;;;16.73;11.45;;;;;;;20.79;34.02;100284.91;1682060;83;20198;-70
2022/09/01 11:36:53;;;;;;;16.48;11.25;;;;;;;20.78;33.09;100286.80;1691737;83;21077;-71
2022/09/01 11:39:36;;;;;;;17.82;12.45;;;;;;;20.80;34.23;100293.33;1687628;83;21613;-71
2022/09/01 11:42:12;;;;;;;21.68;12.73;;;;;;;20.82;35.01;100294.42;1677250;83;21568;-72
2022/09/01 11:44:59;;;;;;;18.23;11.95;;;;;;;20.85;35.10;100304.73;1664764;83;21034;-70
2022/09/01 11:47:39;;;;;;;20.45;14.15;;;;;;;20.76;34.94;100303.85;1653948;84;21094;-71
2022/09/01 11:50:20;;;;;;;18.92;12.45;;;;;;;20.63;35.07;100300.20;1651092;84;21585;-71
2022/09/01 11:53:03;;;;;;;18.00;13.05;;;;;;;20.49;34.96;100301.65;1656770;84;20997;-70